Terminal Aerodrome Forecast
Issued by NWS Charleston, WV

Current Version | Previous Version | Graphics & Text | Print | Product List | Glossary On
Versions: 1 2 3 4 5 6 7 8 9 10 11 12 13 14 15 16 17 18 19 20 21 22 23 24
000
FTUS41 KRLX 311005 AAB
TAFCRW
TAF AMD
KCRW 311005Z 3110/0106 00000KT 3SM BR BKN001 BKN120
     FM311200 00000KT 6SM BR SCT045 BKN120
     FM311300 00000KT P6SM BKN045
     FM010100 00000KT P6SM SCT050=

USA.gov is the U.S. government's official web portal to all federal, state and local government web resources and services.